Terminal Aerodrome Forecast
Issued by NWS

Current Version | Previous Version | Text Only | Print | Product List | Glossary On
Versions: 1 2 3 4 5 6 7 8 9 10 11 12 13 14 15 16 17 18
000
FTUS43 KTOP 280500
TAFFOE
TAF
KFOE 280520Z 2806/2906 12005KT P6SM OVC250
      TEMPO 2811/2815 3SM -TSRA BKN035CB
     FM281500 15010KT P6SM SCT040 BKN150
     FM282000 17012KT P6SM VCTS SCT040CB
     FM290200 17008KT P6SM BKN035=

USA.gov is the U.S. government's official web portal to all federal, state and local government web resources and services.